Shaver Lake, California
Current Conditions -  °F | °C
As of 12:53 AM on Sunday 26 Oct 2014 (Local Time) from KFAT Reporting Station
Broken Clouds Broken Clouds  
Wind Chill: 60°   Ceiling: 6500
Heat Index: 60°   Visibility: 10mi
Dew Point: 53°   Wind: 12mph
Humidity: 78%   Direction: 310°NW
Pressure: 30.1"   Gusts: NA
Location:  37.1°N, 119.31°W
Report Text: KFAT 260753Z 31010KT 10SM BKN065 BKN095 16/12 A3010 RMK AO2 SLP189 T01560117 402720133
Loading
Personal Weather Stations






























Interactive Weather Map
Tropical Storm Tracking
New forecast layout! Learn more

10-Day Weather Forecast

Advertisements
Track Severe Weather on mobile